createdAt,value
2023-05-07T00:02:02.290Z,101762.00
2023-05-07T00:04:29.601Z,101755.00
2023-05-07T00:06:56.721Z,101749.00
2023-05-07T00:09:23.494Z,101753.00
2023-05-07T00:11:50.368Z,101761.00
2023-05-07T00:14:17.176Z,101755.00
2023-05-07T00:16:43.994Z,101754.00
2023-05-07T00:19:10.803Z,101749.00
2023-05-07T00:21:37.662Z,101756.00
2023-05-07T00:24:04.916Z,101746.00
2023-05-07T00:26:31.678Z,101760.00
2023-05-07T00:28:58.470Z,101753.00
2023-05-07T00:31:25.377Z,101745.00
2023-05-07T00:33:52.175Z,101741.00
2023-05-07T00:36:18.997Z,101739.00
2023-05-07T00:38:45.733Z,101752.00
2023-05-07T00:41:12.513Z,101743.00
2023-05-07T00:43:39.340Z,101755.00
2023-05-07T00:46:06.376Z,101755.00
2023-05-07T00:48:33.715Z,101759.00
2023-05-07T00:51:00.532Z,101745.00
2023-05-07T00:53:27.602Z,101753.00
2023-05-07T00:55:54.572Z,101748.00
2023-05-07T00:58:22.334Z,101750.00
2023-05-07T01:00:49.159Z,101754.00
2023-05-07T01:03:16.041Z,101749.00
2023-05-07T01:05:47.080Z,101757.00
2023-05-07T01:08:16.051Z,101750.00
2023-05-07T01:10:44.439Z,101751.00
2023-05-07T01:13:13.181Z,101756.00
2023-05-07T01:15:42.028Z,101750.00
2023-05-07T01:18:08.870Z,101759.00
2023-05-07T01:20:35.724Z,101756.00
2023-05-07T01:23:04.603Z,101758.00
2023-05-07T01:25:32.013Z,101757.00
2023-05-07T01:28:00.439Z,101764.00
2023-05-07T01:30:29.336Z,101760.00
2023-05-07T01:33:11.061Z,101759.00
2023-05-07T01:35:44.655Z,101753.00
2023-05-07T01:38:12.804Z,101757.00
2023-05-07T01:40:39.893Z,101765.00
2023-05-07T01:43:07.467Z,101767.00
2023-05-07T01:45:36.335Z,101758.00
2023-05-07T01:48:04.805Z,101763.00
2023-05-07T01:50:35.249Z,101761.00
2023-05-07T01:53:04.186Z,101770.00
2023-05-07T01:55:31.072Z,101776.00
2023-05-07T01:57:57.810Z,101767.00
2023-05-07T02:00:24.720Z,101771.00
2023-05-07T02:02:51.619Z,101769.00
2023-05-07T02:05:18.485Z,101768.00
2023-05-07T02:07:45.284Z,101774.00
2023-05-07T02:10:12.245Z,101773.00
2023-05-07T02:12:39.195Z,101769.00
2023-05-07T02:15:06.648Z,101768.00
2023-05-07T02:17:34.026Z,101770.00
2023-05-07T02:20:01.036Z,101781.00
2023-05-07T02:22:27.781Z,101780.00
2023-05-07T02:24:54.508Z,101784.00
2023-05-07T02:27:21.260Z,101780.00
2023-05-07T02:29:48.105Z,101776.00
2023-05-07T02:32:14.863Z,101772.00
2023-05-07T02:34:41.661Z,101778.00
2023-05-07T02:37:08.416Z,101787.00
2023-05-07T02:39:35.542Z,101781.00
2023-05-07T02:42:02.672Z,101783.00
2023-05-07T02:44:32.406Z,101787.00
2023-05-07T02:46:59.174Z,101771.00
2023-05-07T02:49:25.910Z,101776.00
2023-05-07T02:51:52.678Z,101791.00
2023-05-07T02:54:19.399Z,101790.00
2023-05-07T02:56:46.169Z,101789.00
2023-05-07T02:59:13.142Z,101786.00
2023-05-07T03:01:39.999Z,101788.00
2023-05-07T03:04:06.938Z,101800.00
2023-05-07T03:06:33.741Z,101804.00
2023-05-07T03:09:00.492Z,101806.00
2023-05-07T03:11:27.314Z,101797.00
2023-05-07T03:13:54.094Z,101804.00
2023-05-07T03:16:21.021Z,101802.00
2023-05-07T03:18:48.001Z,101794.00
2023-05-07T03:21:14.818Z,101799.00
2023-05-07T03:23:41.525Z,101796.00
2023-05-07T03:26:08.271Z,101809.00
2023-05-07T03:28:35.010Z,101810.00
2023-05-07T03:31:02.021Z,101812.00
2023-05-07T03:33:28.762Z,101810.00
2023-05-07T03:35:55.647Z,101815.00
2023-05-07T03:38:22.396Z,101823.00
2023-05-07T03:40:49.168Z,101809.00
2023-05-07T03:43:16.082Z,101814.00
2023-05-07T03:45:43.446Z,101820.00
2023-05-07T03:48:10.239Z,101809.00
2023-05-07T03:50:37.112Z,101817.00
2023-05-07T03:53:03.839Z,101829.00
2023-05-07T03:55:31.008Z,101837.00
2023-05-07T03:57:57.742Z,101832.00
2023-05-07T04:00:24.545Z,101826.00
2023-05-07T04:02:51.494Z,101831.00
2023-05-07T04:05:18.327Z,101826.00
2023-05-07T04:07:45.441Z,101823.00
2023-05-07T04:10:12.692Z,101825.00
2023-05-07T04:12:39.643Z,101835.00
2023-05-07T04:15:07.021Z,101834.00
2023-05-07T04:17:33.775Z,101829.00
2023-05-07T04:20:00.678Z,101826.00
2023-05-07T04:22:27.728Z,101827.00
2023-05-07T04:24:54.443Z,101830.00
2023-05-07T04:27:21.462Z,101835.00
2023-05-07T04:29:48.311Z,101836.00
2023-05-07T04:32:15.570Z,101839.00
2023-05-07T04:34:42.361Z,101832.00
2023-05-07T04:37:09.553Z,101836.00
2023-05-07T04:39:36.345Z,101845.00
2023-05-07T04:42:03.967Z,101847.00
2023-05-07T04:44:32.175Z,101840.00
2023-05-07T04:46:59.000Z,101850.00
2023-05-07T04:49:25.751Z,101855.00
2023-05-07T04:51:52.524Z,101860.00
2023-05-07T04:54:19.288Z,101855.00
2023-05-07T04:56:46.328Z,101860.00
2023-05-07T04:59:13.079Z,101865.00
2023-05-07T05:01:39.831Z,101865.00
2023-05-07T05:04:06.621Z,101862.00
2023-05-07T05:06:33.522Z,101870.00
2023-05-07T05:09:00.243Z,101869.00
2023-05-07T05:11:27.173Z,101871.00
2023-05-07T05:13:53.954Z,101870.00
2023-05-07T05:16:20.764Z,101864.00
2023-05-07T05:18:47.563Z,101871.00
2023-05-07T05:21:14.285Z,101882.00
2023-05-07T05:23:41.478Z,101881.00
2023-05-07T05:26:08.252Z,101875.00
2023-05-07T05:28:35.024Z,101887.00
2023-05-07T05:31:01.892Z,101884.00
2023-05-07T05:33:28.685Z,101878.00
2023-05-07T05:35:55.900Z,101883.00
2023-05-07T05:38:22.680Z,101879.00
2023-05-07T05:40:49.411Z,101886.00
2023-05-07T05:43:16.156Z,101877.00
2023-05-07T05:45:42.895Z,101872.00
2023-05-07T05:48:09.765Z,101882.00
2023-05-07T05:50:37.661Z,101879.00
2023-05-07T05:53:04.435Z,101884.00
2023-05-07T05:55:33.317Z,101887.00
2023-05-07T05:58:04.490Z,101884.00
2023-05-07T06:00:31.463Z,101891.00
2023-05-07T06:02:58.239Z,101889.00
2023-05-07T06:05:25.056Z,101890.00
2023-05-07T06:07:51.873Z,101902.00
2023-05-07T06:10:18.899Z,101897.00
2023-05-07T06:12:45.874Z,101904.00
2023-05-07T06:15:12.766Z,101900.00
2023-05-07T06:17:39.483Z,101896.00
2023-05-07T06:20:07.459Z,101905.00
2023-05-07T06:22:34.339Z,101899.00
2023-05-07T06:25:01.167Z,101911.00
2023-05-07T06:27:29.015Z,101911.00
2023-05-07T06:29:55.769Z,101917.00
2023-05-07T06:32:22.619Z,101913.00
2023-05-07T06:34:49.434Z,101918.00
2023-05-07T06:37:16.222Z,101917.00
2023-05-07T06:39:42.955Z,101923.00
2023-05-07T06:42:09.769Z,101922.00
2023-05-07T06:44:36.521Z,101926.00
2023-05-07T06:47:03.274Z,101928.00
2023-05-07T06:49:30.029Z,101936.00
2023-05-07T06:51:57.203Z,101928.00
2023-05-07T06:54:24.529Z,101944.00
2023-05-07T06:56:51.352Z,101941.00
2023-05-07T06:59:18.099Z,101936.00
2023-05-07T07:01:45.415Z,101937.00
2023-05-07T07:04:12.252Z,101938.00
2023-05-07T07:06:39.701Z,101943.00
2023-05-07T07:09:06.488Z,101948.00
2023-05-07T07:11:33.208Z,101955.00
2023-05-07T07:14:00.223Z,101944.00
2023-05-07T07:16:27.013Z,101935.00
2023-05-07T07:18:53.781Z,101937.00
2023-05-07T07:21:20.907Z,101939.00
2023-05-07T07:23:47.681Z,101943.00
2023-05-07T07:26:14.455Z,101947.00
2023-05-07T07:28:46.285Z,101943.00
2023-05-07T07:31:14.054Z,101949.00
2023-05-07T07:33:40.881Z,101945.00
2023-05-07T07:36:08.569Z,101942.00
2023-05-07T07:38:35.930Z,101945.00
2023-05-07T07:41:02.845Z,101937.00
2023-05-07T07:43:29.639Z,101922.00
2023-05-07T07:45:56.501Z,101928.00
2023-05-07T07:48:23.357Z,101917.00
2023-05-07T07:50:52.212Z,101917.00
2023-05-07T07:53:19.502Z,101924.00
2023-05-07T07:55:46.723Z,101932.00
2023-05-07T07:58:13.668Z,101931.00
2023-05-07T08:00:40.552Z,101928.00
2023-05-07T08:03:10.508Z,101938.00
2023-05-07T08:05:37.670Z,101934.00
2023-05-07T08:08:04.826Z,101937.00
2023-05-07T08:10:35.213Z,101943.00
2023-05-07T08:13:05.370Z,101927.00
2023-05-07T08:15:32.314Z,101927.00
2023-05-07T08:18:01.132Z,101934.00
2023-05-07T08:20:28.965Z,101938.00
2023-05-07T08:22:55.857Z,101929.00
2023-05-07T08:25:22.926Z,101938.00
2023-05-07T08:27:49.813Z,101931.00
2023-05-07T08:30:16.946Z,101939.00
2023-05-07T08:32:43.703Z,101932.00
2023-05-07T08:35:10.822Z,101933.00
2023-05-07T08:37:38.082Z,101946.00
2023-05-07T08:40:06.734Z,101942.00
2023-05-07T08:42:41.129Z,101932.00
2023-05-07T08:45:12.081Z,101936.00
2023-05-07T08:47:47.462Z,101946.00
2023-05-07T08:50:14.824Z,101946.00
2023-05-07T08:52:41.854Z,101946.00
2023-05-07T08:55:10.200Z,101942.00
2023-05-07T08:57:37.197Z,101954.00
2023-05-07T09:00:07.482Z,101959.00
2023-05-07T09:02:39.114Z,101950.00
2023-05-07T09:05:06.585Z,101956.00
2023-05-07T09:07:33.412Z,101962.00
2023-05-07T09:10:06.474Z,101957.00
2023-05-07T09:12:33.348Z,101953.00
2023-05-07T09:15:00.692Z,101972.00
2023-05-07T09:17:28.147Z,101967.00
2023-05-07T09:19:55.032Z,101964.00
2023-05-07T09:22:22.030Z,101968.00
2023-05-07T09:24:52.741Z,101976.00
2023-05-07T09:27:19.823Z,101981.00
2023-05-07T09:29:46.604Z,101977.00
2023-05-07T09:32:14.314Z,101963.00
2023-05-07T09:34:42.639Z,101958.00
2023-05-07T09:37:09.448Z,101971.00
2023-05-07T09:39:47.425Z,101953.00
2023-05-07T09:42:16.071Z,101970.00
2023-05-07T09:44:45.415Z,101961.00
2023-05-07T09:47:20.561Z,101963.00
2023-05-07T09:49:49.367Z,101967.00
2023-05-07T09:52:17.792Z,101964.00
2023-05-07T09:54:48.205Z,101968.00
2023-05-07T09:57:16.375Z,101968.00
2023-05-07T09:59:44.829Z,101970.00
2023-05-07T10:02:14.081Z,101974.00
2023-05-07T10:04:41.501Z,101967.00
2023-05-07T10:07:09.935Z,101967.00
2023-05-07T10:09:39.500Z,101984.00
2023-05-07T10:12:07.742Z,101973.00
2023-05-07T10:14:35.275Z,101973.00
2023-05-07T10:17:03.765Z,101965.00
2023-05-07T10:19:31.882Z,101967.00
2023-05-07T10:22:07.225Z,101972.00
2023-05-07T10:24:36.304Z,101975.00
2023-05-07T10:27:09.107Z,101971.00
2023-05-07T10:29:56.249Z,101974.00
2023-05-07T10:32:54.756Z,101979.00
2023-05-07T10:35:31.287Z,101969.00
2023-05-07T10:37:58.341Z,101980.00
2023-05-07T10:40:25.433Z,101958.00
2023-05-07T10:42:57.729Z,101968.00
2023-05-07T10:45:25.668Z,101976.00
2023-05-07T10:48:29.662Z,101976.00
2023-05-07T10:51:33.834Z,101971.00
2023-05-07T10:54:12.844Z,101968.00
2023-05-07T10:56:43.957Z,101977.00
2023-05-07T10:59:27.617Z,101981.00
2023-05-07T11:02:11.990Z,101974.00
2023-05-07T11:04:40.072Z,101980.00
2023-05-07T11:07:10.204Z,101980.00
2023-05-07T11:09:56.863Z,101978.00
2023-05-07T11:12:39.344Z,101976.00
2023-05-07T11:15:16.647Z,101975.00
2023-05-07T11:18:00.920Z,101968.00
2023-05-07T11:20:57.971Z,101962.00
2023-05-07T11:23:36.750Z,101959.00
2023-05-07T11:26:10.436Z,101957.00
2023-05-07T11:28:42.779Z,101966.00
2023-05-07T11:31:11.265Z,101967.00
2023-05-07T11:33:39.250Z,101957.00
2023-05-07T11:36:09.463Z,101955.00
2023-05-07T11:38:38.324Z,101953.00
2023-05-07T11:41:08.172Z,101965.00
2023-05-07T11:43:37.120Z,101957.00
2023-05-07T11:46:13.119Z,101959.00
2023-05-07T11:48:40.257Z,101946.00
2023-05-07T11:51:09.989Z,101954.00
2023-05-07T11:53:45.262Z,101956.00
2023-05-07T11:56:15.340Z,101951.00
2023-05-07T11:58:44.450Z,101955.00
2023-05-07T12:01:13.644Z,101955.00
2023-05-07T12:03:48.368Z,101956.00
2023-05-07T12:06:17.594Z,101947.00
2023-05-07T12:08:48.208Z,101945.00
2023-05-07T12:11:23.479Z,101956.00
2023-05-07T12:13:50.282Z,101945.00
2023-05-07T12:16:18.339Z,101935.00
2023-05-07T12:18:46.226Z,101945.00
2023-05-07T12:21:13.239Z,101949.00
2023-05-07T12:23:41.079Z,101949.00
2023-05-07T12:26:08.052Z,101956.00
2023-05-07T12:28:42.298Z,101956.00
2023-05-07T12:31:09.611Z,101951.00
2023-05-07T12:33:37.213Z,101954.00
2023-05-07T12:36:08.295Z,101958.00
2023-05-07T12:38:42.173Z,101950.00
2023-05-07T12:41:11.700Z,101949.00
2023-05-07T12:43:39.282Z,101960.00
2023-05-07T12:46:09.336Z,101955.00
2023-05-07T12:48:39.655Z,101952.00
2023-05-07T12:51:08.569Z,101955.00
2023-05-07T12:53:42.400Z,101955.00
2023-05-07T12:56:09.398Z,101955.00
2023-05-07T12:58:37.407Z,101963.00
2023-05-07T13:01:10.675Z,101957.00
2023-05-07T13:03:39.475Z,101954.00
2023-05-07T13:06:13.693Z,101953.00
2023-05-07T13:08:46.065Z,101943.00
2023-05-07T13:11:13.884Z,101947.00
2023-05-07T13:13:42.313Z,101945.00
2023-05-07T13:16:12.033Z,101950.00
2023-05-07T13:18:41.682Z,101939.00
2023-05-07T13:21:08.762Z,101956.00
2023-05-07T13:23:35.663Z,101961.00
2023-05-07T13:26:08.592Z,101958.00
2023-05-07T13:28:41.785Z,101940.00
2023-05-07T13:31:08.515Z,101952.00
2023-05-07T13:33:35.478Z,101952.00
2023-05-07T13:36:05.594Z,101949.00
2023-05-07T13:38:32.853Z,101954.00
2023-05-07T13:40:59.567Z,101962.00
2023-05-07T13:43:26.925Z,101954.00
2023-05-07T13:45:53.863Z,101945.00
2023-05-07T13:48:20.789Z,101937.00
2023-05-07T13:50:47.548Z,101952.00
2023-05-07T13:53:14.586Z,101953.00
2023-05-07T13:55:41.316Z,101959.00
2023-05-07T13:58:08.065Z,101963.00
2023-05-07T14:00:35.475Z,101960.00
2023-05-07T14:03:03.174Z,101959.00
2023-05-07T14:05:30.032Z,101966.00
2023-05-07T14:07:59.041Z,101951.00
2023-05-07T14:10:26.342Z,101953.00
2023-05-07T14:12:53.825Z,101951.00
2023-05-07T14:15:20.813Z,101952.00
2023-05-07T14:17:47.931Z,101949.00
2023-05-07T14:20:15.098Z,101957.00
2023-05-07T14:22:42.270Z,101947.00
2023-05-07T14:25:10.713Z,101950.00
2023-05-07T14:27:37.720Z,101948.00
2023-05-07T14:30:04.886Z,101940.00
2023-05-07T14:32:33.154Z,101935.00
2023-05-07T14:34:59.893Z,101936.00
2023-05-07T14:37:26.642Z,101939.00
2023-05-07T14:39:53.418Z,101945.00
2023-05-07T14:42:20.348Z,101941.00
2023-05-07T14:44:48.897Z,101944.00
2023-05-07T14:47:17.629Z,101943.00
2023-05-07T14:49:46.274Z,101936.00
2023-05-07T14:52:13.106Z,101930.00
2023-05-07T14:54:39.959Z,101941.00
2023-05-07T14:57:09.199Z,101945.00
2023-05-07T14:59:36.210Z,101948.00
2023-05-07T15:02:06.212Z,101941.00
2023-05-07T15:04:34.017Z,101946.00
2023-05-07T15:07:01.419Z,101939.00
2023-05-07T15:09:28.179Z,101953.00
2023-05-07T15:11:54.927Z,101958.00
2023-05-07T15:14:22.992Z,101954.00
2023-05-07T15:16:50.223Z,101955.00
2023-05-07T15:19:17.912Z,101955.00
2023-05-07T15:21:44.916Z,101955.00
2023-05-07T15:24:11.728Z,101957.00
2023-05-07T15:26:38.473Z,101958.00
2023-05-07T15:29:10.119Z,101968.00
2023-05-07T15:31:38.868Z,101956.00
2023-05-07T15:34:05.711Z,101960.00
2023-05-07T15:36:32.511Z,101982.00
2023-05-07T15:38:59.285Z,101966.00
2023-05-07T15:41:26.289Z,101975.00
2023-05-07T15:43:53.817Z,101982.00
2023-05-07T15:46:25.280Z,101968.00
2023-05-07T15:48:53.840Z,101967.00
2023-05-07T15:51:21.238Z,101970.00
2023-05-07T15:53:48.267Z,101966.00
2023-05-07T15:56:15.459Z,101972.00
2023-05-07T15:58:42.298Z,101965.00
2023-05-07T16:01:09.168Z,101969.00
2023-05-07T16:03:36.330Z,101973.00
2023-05-07T16:06:03.346Z,101973.00
2023-05-07T16:08:30.091Z,101971.00
2023-05-07T16:10:56.848Z,101968.00
2023-05-07T16:13:24.853Z,101964.00
2023-05-07T16:15:58.393Z,101964.00
2023-05-07T16:18:25.295Z,101973.00
2023-05-07T16:20:52.535Z,101984.00
2023-05-07T16:23:19.343Z,101964.00
2023-05-07T16:25:46.549Z,101970.00
2023-05-07T16:28:14.081Z,101976.00
2023-05-07T16:30:40.963Z,101969.00
2023-05-07T16:33:08.330Z,101986.00
2023-05-07T16:35:35.109Z,101980.00
2023-05-07T16:38:01.902Z,101977.00
2023-05-07T16:40:28.722Z,101994.00
2023-05-07T16:42:55.727Z,101983.00
2023-05-07T16:45:23.303Z,101988.00
2023-05-07T16:47:50.592Z,101993.00
2023-05-07T16:50:17.456Z,101994.00
2023-05-07T16:52:44.732Z,101997.00
2023-05-07T16:55:11.873Z,101994.00
2023-05-07T16:57:38.961Z,101990.00
2023-05-07T17:00:07.579Z,101990.00
2023-05-07T17:02:37.163Z,101999.00
2023-05-07T17:05:06.341Z,102002.00
2023-05-07T17:07:33.240Z,102006.00
2023-05-07T17:10:00.028Z,102000.00
2023-05-07T17:12:26.947Z,102004.00
2023-05-07T17:14:53.785Z,102002.00
2023-05-07T17:17:20.570Z,102013.00
2023-05-07T17:19:47.308Z,102003.00
2023-05-07T17:22:14.056Z,102012.00
2023-05-07T17:24:40.788Z,102012.00
2023-05-07T17:27:07.864Z,102008.00
2023-05-07T17:29:34.724Z,102008.00
2023-05-07T17:32:01.619Z,102023.00
2023-05-07T17:34:28.576Z,102012.00
2023-05-07T17:36:56.139Z,102021.00
2023-05-07T17:39:22.888Z,102028.00
2023-05-07T17:41:49.610Z,102026.00
2023-05-07T17:44:16.439Z,102030.00
2023-05-07T17:46:43.211Z,102045.00
2023-05-07T17:49:09.987Z,102043.00
2023-05-07T17:51:52.753Z,102054.00
2023-05-07T17:54:21.623Z,102046.00
2023-05-07T17:56:48.455Z,102040.00
2023-05-07T17:59:15.244Z,102049.00
2023-05-07T18:01:42.192Z,102041.00
2023-05-07T18:04:09.084Z,102049.00
2023-05-07T18:06:36.134Z,102040.00
2023-05-07T18:09:03.052Z,102049.00
2023-05-07T18:11:32.294Z,102052.00
2023-05-07T18:13:59.831Z,102054.00
2023-05-07T18:16:26.750Z,102045.00
2023-05-07T18:18:54.796Z,102064.00
2023-05-07T18:21:21.748Z,102051.00
2023-05-07T18:23:49.200Z,102065.00
2023-05-07T18:26:16.437Z,102059.00
2023-05-07T18:28:43.399Z,102054.00
2023-05-07T18:31:10.960Z,102063.00
2023-05-07T18:33:37.836Z,102067.00
2023-05-07T18:36:05.004Z,102064.00
2023-05-07T18:38:32.300Z,102068.00
2023-05-07T18:41:05.227Z,102070.00
2023-05-07T18:43:33.787Z,102083.00
2023-05-07T18:46:01.265Z,102087.00
2023-05-07T18:48:28.140Z,102085.00
2023-05-07T18:50:54.971Z,102077.00
2023-05-07T18:53:21.705Z,102083.00
2023-05-07T18:55:52.745Z,102090.00
2023-05-07T18:58:20.113Z,102088.00
2023-05-07T19:00:50.372Z,102100.00
2023-05-07T19:03:17.573Z,102095.00
2023-05-07T19:05:45.303Z,102104.00
2023-05-07T19:08:12.343Z,102105.00
2023-05-07T19:10:39.522Z,102111.00
2023-05-07T19:13:06.681Z,102115.00
2023-05-07T19:15:33.792Z,102106.00
2023-05-07T19:18:00.764Z,102099.00
2023-05-07T19:20:28.694Z,102115.00
2023-05-07T19:22:55.949Z,102108.00
2023-05-07T19:25:22.799Z,102116.00
2023-05-07T19:27:50.833Z,102118.00
2023-05-07T19:30:18.214Z,102117.00
2023-05-07T19:32:45.166Z,102118.00
2023-05-07T19:35:12.229Z,102128.00
2023-05-07T19:37:39.583Z,102130.00
2023-05-07T19:40:08.721Z,102128.00
2023-05-07T19:42:36.186Z,102134.00
2023-05-07T19:45:05.055Z,102137.00
2023-05-07T19:47:32.052Z,102132.00
2023-05-07T19:49:58.862Z,102136.00
2023-05-07T19:52:26.338Z,102134.00
2023-05-07T19:54:53.272Z,102132.00
2023-05-07T19:57:19.988Z,102137.00
2023-05-07T19:59:47.310Z,102147.00
2023-05-07T20:02:15.236Z,102145.00
2023-05-07T20:04:42.285Z,102150.00
2023-05-07T20:07:09.113Z,102146.00
2023-05-07T20:09:36.503Z,102151.00
2023-05-07T20:12:03.470Z,102140.00
2023-05-07T20:14:30.410Z,102150.00
2023-05-07T20:16:57.153Z,102153.00
2023-05-07T20:19:23.877Z,102150.00
2023-05-07T20:21:50.635Z,102154.00
2023-05-07T20:24:19.248Z,102165.00
2023-05-07T20:26:46.742Z,102174.00
2023-05-07T20:29:13.565Z,102167.00
2023-05-07T20:31:40.922Z,102185.00
2023-05-07T20:34:08.051Z,102174.00
2023-05-07T20:36:35.922Z,102192.00
2023-05-07T20:39:02.952Z,102191.00
2023-05-07T20:41:29.917Z,102185.00
2023-05-07T20:43:57.166Z,102182.00
2023-05-07T20:46:25.211Z,102181.00
2023-05-07T20:48:52.523Z,102186.00
2023-05-07T20:51:19.334Z,102196.00
2023-05-07T20:53:47.776Z,102196.00
2023-05-07T20:56:15.530Z,102191.00
2023-05-07T20:58:42.268Z,102197.00
2023-05-07T21:01:09.086Z,102194.00
2023-05-07T21:03:35.926Z,102187.00
2023-05-07T21:06:04.056Z,102204.00
2023-05-07T21:08:31.521Z,102192.00
2023-05-07T21:10:58.787Z,102191.00
2023-05-07T21:13:25.697Z,102199.00
2023-05-07T21:15:53.507Z,102192.00
2023-05-07T21:18:20.757Z,102191.00
2023-05-07T21:20:47.753Z,102196.00
2023-05-07T21:23:14.496Z,102203.00
2023-05-07T21:25:41.490Z,102203.00
2023-05-07T21:28:09.043Z,102199.00
2023-05-07T21:30:36.983Z,102200.00
2023-05-07T21:33:07.661Z,102203.00
2023-05-07T21:35:36.423Z,102199.00
2023-05-07T21:38:03.578Z,102215.00
2023-05-07T21:40:30.511Z,102207.00
2023-05-07T21:42:58.769Z,102204.00
2023-05-07T21:45:25.520Z,102202.00
2023-05-07T21:47:52.401Z,102215.00
2023-05-07T21:50:19.626Z,102212.00
2023-05-07T21:52:46.800Z,102208.00
2023-05-07T21:55:13.855Z,102215.00
2023-05-07T21:57:45.536Z,102210.00
2023-05-07T22:00:16.328Z,102223.00
2023-05-07T22:02:43.176Z,102223.00
2023-05-07T22:05:10.072Z,102223.00
2023-05-07T22:07:36.840Z,102215.00
2023-05-07T22:10:03.842Z,102216.00
2023-05-07T22:12:30.636Z,102224.00
2023-05-07T22:14:57.666Z,102220.00
2023-05-07T22:17:24.617Z,102228.00
2023-05-07T22:19:51.845Z,102218.00
2023-05-07T22:22:19.228Z,102224.00
2023-05-07T22:24:46.522Z,102229.00
2023-05-07T22:27:13.594Z,102229.00
2023-05-07T22:29:40.768Z,102231.00
2023-05-07T22:32:08.351Z,102226.00
2023-05-07T22:34:36.597Z,102232.00
2023-05-07T22:37:03.368Z,102229.00
2023-05-07T22:39:34.353Z,102225.00
2023-05-07T22:42:02.325Z,102233.00
2023-05-07T22:44:29.464Z,102233.00
2023-05-07T22:46:56.237Z,102240.00
2023-05-07T22:49:23.041Z,102238.00
2023-05-07T22:51:49.799Z,102232.00
2023-05-07T22:54:16.551Z,102235.00
2023-05-07T22:56:43.332Z,102238.00
2023-05-07T22:59:10.063Z,102244.00
2023-05-07T23:01:37.084Z,102235.00
2023-05-07T23:04:03.893Z,102226.00
2023-05-07T23:06:31.161Z,102236.00
2023-05-07T23:08:58.913Z,102237.00
2023-05-07T23:11:26.340Z,102233.00
2023-05-07T23:13:53.220Z,102236.00
2023-05-07T23:16:20.346Z,102229.00
2023-05-07T23:18:47.818Z,102228.00
2023-05-07T23:21:14.684Z,102228.00
2023-05-07T23:23:41.486Z,102223.00
2023-05-07T23:26:08.582Z,102234.00
2023-05-07T23:28:35.339Z,102232.00
2023-05-07T23:31:02.379Z,102241.00
2023-05-07T23:33:29.192Z,102228.00
2023-05-07T23:36:04.749Z,102237.00
2023-05-07T23:38:31.878Z,102229.00
2023-05-07T23:40:58.876Z,102227.00
2023-05-07T23:43:25.977Z,102234.00
2023-05-07T23:45:52.881Z,102242.00
2023-05-07T23:48:19.618Z,102236.00
2023-05-07T23:50:46.530Z,102226.00
2023-05-07T23:53:13.269Z,102230.00
2023-05-07T23:55:40.002Z,102236.00
2023-05-07T23:58:06.802Z,102224.00
